Time;durP1;ratioP1;P1;durP2;ratioP2;P2;SDS_P1;SDS_P2;PMS_P1;PMS_P2;Temp;Humidity;BMP_temperature;BMP_pressure;BME280_temperature;BME280_humidity;BME280_pressure;Samples;Min_cycle;Max_cycle;Signal;HPM_P1;HPM_P2
2021/12/31 00:01:24;;;;;;;;;;;6.70;99.90;;;;;;5102426;28;19924;-52
2021/12/31 00:03:52;;;;;;;;;;;6.70;99.90;;;;;;5096653;28;19928;-51
2021/12/31 00:06:19;;;;;;;;;;;6.80;99.90;;;;;;5098351;28;20309;-52
2021/12/31 00:08:45;;;;;;;;;;;6.80;99.90;;;;;;5093316;28;19928;-51
2021/12/31 00:11:12;;;;;;;;;;;6.90;99.90;;;;;;5094081;28;19985;-53
2021/12/31 00:13:40;;;;;;;;;;;6.70;99.90;;;;;;5094111;28;19969;-52
2021/12/31 00:16:07;;;;;;;;;;;6.50;99.90;;;;;;5079342;28;20382;-52
2021/12/31 00:18:34;;;;;;;;;;;6.40;99.90;;;;;;5082677;28;20340;-51
2021/12/31 00:21:01;;;;;;;;;;;6.50;99.90;;;;;;5093918;28;19928;-52
2021/12/31 00:23:28;;;;;;;;;;;6.30;99.90;;;;;;5093005;28;20461;-52
2021/12/31 00:25:55;;;;;;;;;;;6.30;99.90;;;;;;5093970;28;19970;-52
2021/12/31 00:28:22;;;;;;;;;;;6.40;99.90;;;;;;5078231;28;19978;-52
2021/12/31 00:30:53;;;;;;;;;;;6.50;99.90;;;;;;5093533;28;19988;-52
2021/12/31 00:33:20;;;;;;;;;;;6.50;99.90;;;;;;5093855;28;19924;-52
2021/12/31 00:35:47;;;;;;;;;;;6.40;99.90;;;;;;5086160;28;19946;-52
2021/12/31 00:38:14;;;;;;;;;;;6.10;99.90;;;;;;5088215;28;19985;-52
2021/12/31 00:40:41;;;;;;;;;;;5.90;99.90;;;;;;5092179;28;20351;-52
2021/12/31 00:43:10;;;;;;;;;;;5.80;99.90;;;;;;5093556;28;20393;-52
2021/12/31 00:45:39;;;;;;;;;;;5.80;99.90;;;;;;5093773;28;19928;-52
2021/12/31 00:48:08;;;;;;;;;;;5.70;99.90;;;;;;5093240;28;19924;-52
2021/12/31 00:50:35;;;;;;;;;;;5.70;99.90;;;;;;5078391;28;19924;-52
2021/12/31 00:53:02;;;;;;;;;;;5.80;99.90;;;;;;5073063;28;20455;-53
2021/12/31 00:55:28;;;;;;;;;;;5.80;99.90;;;;;;5074728;28;19925;-52
2021/12/31 00:57:55;;;;;;;;;;;5.90;99.90;;;;;;5093154;28;19931;-51
2021/12/31 01:00:22;;;;;;;;;;;5.90;99.90;;;;;;5093826;28;19985;-51
2021/12/31 01:02:51;;;;;;;;;;;6.00;99.90;;;;;;5082453;28;19993;-51
2021/12/31 01:05:20;;;;;;;;;;;6.00;99.90;;;;;;5074054;28;20015;-51
2021/12/31 01:07:47;;;;;;;;;;;6.00;99.90;;;;;;5090855;28;19924;-52
2021/12/31 01:10:15;;;;;;;;;;;6.00;99.90;;;;;;5090877;28;19924;-51
2021/12/31 01:12:42;;;;;;;;;;;5.90;99.90;;;;;;5093091;28;19927;-51
2021/12/31 01:15:10;;;;;;;;;;;5.90;99.90;;;;;;5093219;28;19924;-52
2021/12/31 01:17:48;;;;;;;;;;;5.90;99.90;;;;;;5093243;28;19931;-51
2021/12/31 01:20:15;;;;;;;;;;;5.90;99.90;;;;;;5093557;28;19977;-51
2021/12/31 01:22:43;;;;;;;;;;;6.00;99.90;;;;;;5088938;28;19927;-51
2021/12/31 01:25:11;;;;;;;;;;;6.00;99.90;;;;;;5087753;28;19924;-51
2021/12/31 01:27:38;;;;;;;;;;;6.00;99.90;;;;;;5092723;28;19927;-51
2021/12/31 01:30:05;;;;;;;;;;;6.10;99.90;;;;;;5084987;28;19924;-52
2021/12/31 01:32:32;;;;;;;;;;;6.20;99.90;;;;;;5073101;28;19932;-52
2021/12/31 01:34:59;;;;;;;;;;;6.20;99.90;;;;;;5073836;28;19928;-52
2021/12/31 01:37:26;;;;;;;;;;;6.20;99.90;;;;;;5073864;28;19978;-52
2021/12/31 01:39:54;;;;;;;;;;;6.10;99.90;;;;;;5073964;28;19924;-52
2021/12/31 01:42:28;;;;;;;;;;;6.10;99.90;;;;;;5092859;28;19947;-52
2021/12/31 01:44:57;;;;;;;;;;;5.90;99.90;;;;;;5093169;28;19924;-52
2021/12/31 01:47:34;;;;;;;;;;;5.90;99.90;;;;;;5092044;28;19924;-52
2021/12/31 01:50:06;;;;;;;;;;;5.90;99.90;;;;;;5092679;28;20274;-52
2021/12/31 01:52:33;;;;;;;;;;;5.80;99.90;;;;;;5091466;28;19939;-53
2021/12/31 01:55:02;;;;;;;;;;;5.80;99.90;;;;;;5090772;28;19924;-52
2021/12/31 01:57:30;;;;;;;;;;;5.80;99.90;;;;;;5073228;28;20007;-52
2021/12/31 01:59:57;;;;;;;;;;;5.90;99.90;;;;;;5072780;28;19929;-52
2021/12/31 02:02:24;;;;;;;;;;;5.80;99.90;;;;;;5076159;28;19985;-52
2021/12/31 02:04:52;;;;;;;;;;;5.70;99.90;;;;;;5093444;28;19924;-52
2021/12/31 02:07:18;;;;;;;;;;;5.70;99.90;;;;;;5085038;28;19929;-52
2021/12/31 02:09:49;;;;;;;;;;;5.80;99.90;;;;;;5073154;28;20006;-52
2021/12/31 02:12:17;;;;;;;;;;;5.80;99.90;;;;;;5083010;28;20339;-51
2021/12/31 02:14:44;;;;;;;;;;;5.90;99.90;;;;;;5092729;28;19977;-51
2021/12/31 02:17:11;;;;;;;;;;;5.80;99.90;;;;;;5092348;28;19928;-52
2021/12/31 02:19:38;;;;;;;;;;;5.80;99.90;;;;;;5092365;28;19928;-51
2021/12/31 02:22:07;;;;;;;;;;;5.80;99.90;;;;;;5091487;28;19927;-52
2021/12/31 02:24:35;;;;;;;;;;;5.70;99.90;;;;;;5092290;28;19924;-51
2021/12/31 02:27:03;;;;;;;;;;;5.70;99.90;;;;;;5072381;28;19939;-51
2021/12/31 02:29:29;;;;;;;;;;;5.70;99.90;;;;;;5086938;28;19970;-51
2021/12/31 02:31:56;;;;;;;;;;;5.60;99.90;;;;;;5092324;28;19950;-51
2021/12/31 02:34:23;;;;;;;;;;;5.60;99.90;;;;;;5092591;28;20651;-52
2021/12/31 02:36:50;;;;;;;;;;;5.50;99.90;;;;;;5092385;28;20377;-51
2021/12/31 02:39:18;;;;;;;;;;;5.30;99.90;;;;;;5095155;28;19924;-52
2021/12/31 02:41:45;;;;;;;;;;;5.20;99.90;;;;;;5093995;28;19994;-51
2021/12/31 02:44:12;;;;;;;;;;;5.20;99.90;;;;;;5077333;28;19924;-51
2021/12/31 02:46:39;;;;;;;;;;;5.10;99.90;;;;;;5076294;28;19925;-52
2021/12/31 02:49:05;;;;;;;;;;;5.20;99.90;;;;;;5075881;28;20347;-51
2021/12/31 02:51:32;;;;;;;;;;;5.20;99.90;;;;;;5076235;28;19986;-53
2021/12/31 02:53:59;;;;;;;;;;;5.20;99.90;;;;;;5095271;28;19927;-52
2021/12/31 02:56:29;;;;;;;;;;;5.10;99.90;;;;;;5097162;28;19981;-52
2021/12/31 02:58:56;;;;;;;;;;;5.10;99.90;;;;;;5096377;28;19931;-52
2021/12/31 03:01:23;;;;;;;;;;;5.20;99.90;;;;;;5083539;28;19970;-52
2021/12/31 03:03:50;;;;;;;;;;;5.10;99.90;;;;;;5075552;28;19925;-52
2021/12/31 03:06:17;;;;;;;;;;;5.10;99.90;;;;;;5075705;28;20439;-54
2021/12/31 03:08:45;;;;;;;;;;;5.10;99.90;;;;;;5076593;28;19978;-51
2021/12/31 03:11:13;;;;;;;;;;;5.10;99.90;;;;;;5092357;28;20339;-51
2021/12/31 03:13:42;;;;;;;;;;;5.00;99.90;;;;;;5095557;28;19924;-51
2021/12/31 03:16:08;;;;;;;;;;;5.10;99.90;;;;;;5096041;28;19981;-52
2021/12/31 03:18:36;;;;;;;;;;;5.00;99.90;;;;;;5093957;28;19950;-51
2021/12/31 03:21:08;;;;;;;;;;;4.80;99.90;;;;;;5095664;28;19969;-52
2021/12/31 03:23:35;;;;;;;;;;;4.70;99.90;;;;;;5095830;28;19931;-52
2021/12/31 03:26:01;;;;;;;;;;;4.60;99.90;;;;;;5094527;28;19928;-52
2021/12/31 03:28:28;;;;;;;;;;;4.60;99.90;;;;;;5076360;28;19975;-52
2021/12/31 03:30:57;;;;;;;;;;;4.60;99.90;;;;;;5075375;28;20045;-52
2021/12/31 03:33:24;;;;;;;;;;;4.50;99.90;;;;;;5076228;28;20332;-52
2021/12/31 03:35:51;;;;;;;;;;;4.60;99.90;;;;;;5075105;28;19947;-52
2021/12/31 03:38:17;;;;;;;;;;;4.50;99.90;;;;;;5074815;28;19925;-52
2021/12/31 03:40:46;;;;;;;;;;;4.40;99.90;;;;;;5090133;28;19945;-52
2021/12/31 03:43:13;;;;;;;;;;;4.30;99.90;;;;;;5092438;28;20293;-53
2021/12/31 03:45:40;;;;;;;;;;;4.20;99.90;;;;;;5076654;28;19924;-52
2021/12/31 03:48:08;;;;;;;;;;;4.20;99.90;;;;;;5092830;28;19924;-52
2021/12/31 03:50:35;;;;;;;;;;;4.30;99.90;;;;;;5092600;28;19977;-52
2021/12/31 03:53:02;;;;;;;;;;;4.30;99.90;;;;;;5094996;28;19924;-52
2021/12/31 03:55:28;;;;;;;;;;;4.30;99.90;;;;;;5095005;28;19997;-52
2021/12/31 03:57:55;;;;;;;;;;;4.30;99.90;;;;;;5093065;28;19924;-51
2021/12/31 04:00:22;;;;;;;;;;;4.50;99.90;;;;;;5093197;28;19924;-52
2021/12/31 04:02:49;;;;;;;;;;;4.70;99.90;;;;;;5093824;28;19996;-52
2021/12/31 04:05:17;;;;;;;;;;;4.80;99.90;;;;;;5090804;28;20428;-52
2021/12/31 04:07:45;;;;;;;;;;;4.80;99.90;;;;;;5085711;28;19931;-52
2021/12/31 04:10:12;;;;;;;;;;;4.70;99.90;;;;;;5074043;28;19924;-53
2021/12/31 04:12:39;;;;;;;;;;;4.70;99.90;;;;;;5089958;28;20351;-52
2021/12/31 04:15:06;;;;;;;;;;;4.50;99.90;;;;;;5080454;28;19924;-52
2021/12/31 04:17:33;;;;;;;;;;;4.30;99.90;;;;;;5073969;28;20002;-52
2021/12/31 04:20:00;;;;;;;;;;;4.20;99.90;;;;;;5074610;28;19928;-52
2021/12/31 04:22:30;;;;;;;;;;;4.10;99.90;;;;;;5082963;28;20308;-52
2021/12/31 04:24:57;;;;;;;;;;;4.00;99.90;;;;;;5078206;28;20287;-53
2021/12/31 04:27:24;;;;;;;;;;;4.00;99.90;;;;;;5073693;28;19924;-51
2021/12/31 04:29:52;;;;;;;;;;;4.00;99.90;;;;;;5075297;28;19932;-52
2021/12/31 04:32:20;;;;;;;;;;;3.90;99.90;;;;;;5073504;28;20019;-52
2021/12/31 04:34:47;;;;;;;;;;;3.90;99.90;;;;;;5073699;28;20417;-52
2021/12/31 04:37:14;;;;;;;;;;;3.80;99.90;;;;;;5084515;28;20389;-53
2021/12/31 04:39:42;;;;;;;;;;;3.80;99.90;;;;;;5093745;28;19924;-53
2021/12/31 04:42:09;;;;;;;;;;;3.90;99.90;;;;;;5078238;28;19978;-52
2021/12/31 04:44:36;;;;;;;;;;;3.80;99.90;;;;;;5073370;28;19924;-52
2021/12/31 04:47:03;;;;;;;;;;;3.80;99.90;;;;;;5073333;28;19924;-52
2021/12/31 04:49:29;;;;;;;;;;;4.10;99.90;;;;;;5073299;28;19977;-52
2021/12/31 04:51:56;;;;;;;;;;;4.30;99.90;;;;;;5073605;28;19925;-52
2021/12/31 04:54:23;;;;;;;;;;;4.40;99.90;;;;;;5085655;28;19932;-52
2021/12/31 04:56:53;;;;;;;;;;;4.50;99.90;;;;;;5092328;28;19928;-52
2021/12/31 04:59:20;;;;;;;;;;;4.50;99.90;;;;;;5092643;28;19928;-52
2021/12/31 05:01:47;;;;;;;;;;;4.50;99.90;;;;;;5092699;28;20156;-53
2021/12/31 05:04:14;;;;;;;;;;;4.70;99.90;;;;;;5092827;28;19969;-53
2021/12/31 05:06:41;;;;;;;;;;;4.60;99.90;;;;;;5092576;28;20358;-52
2021/12/31 05:09:07;;;;;;;;;;;4.80;99.90;;;;;;5090370;28;19924;-51
2021/12/31 05:11:34;;;;;;;;;;;4.90;99.90;;;;;;5075223;28;19924;-52
2021/12/31 05:14:04;;;;;;;;;;;5.00;99.90;;;;;;5072481;28;20339;-52
2021/12/31 05:16:31;;;;;;;;;;;5.10;99.90;;;;;;5072921;28;19928;-52
2021/12/31 05:18:58;;;;;;;;;;;5.10;99.90;;;;;;5072586;28;19975;-53
2021/12/31 05:21:24;;;;;;;;;;;5.20;99.90;;;;;;5077113;28;19969;-52
2021/12/31 05:24:10;;;;;;;;;;;5.10;99.90;;;;;;5092899;28;19969;-52
2021/12/31 05:26:36;;;;;;;;;;;5.10;99.90;;;;;;5091313;28;20309;-51
2021/12/31 05:29:05;;;;;;;;;;;5.20;99.90;;;;;;5092668;28;19924;-52
2021/12/31 05:31:32;;;;;;;;;;;5.20;99.90;;;;;;5092985;28;19969;-52
2021/12/31 05:33:58;;;;;;;;;;;5.10;99.90;;;;;;5092786;28;20421;-53
2021/12/31 05:36:25;;;;;;;;;;;5.10;99.90;;;;;;5090968;28;19969;-52
2021/12/31 05:38:52;;;;;;;;;;;5.10;99.90;;;;;;5092660;28;19928;-52
2021/12/31 05:41:18;;;;;;;;;;;5.10;99.90;;;;;;5093180;28;20300;-52
2021/12/31 05:43:45;;;;;;;;;;;5.10;99.90;;;;;;5082713;28;19924;-52
2021/12/31 05:46:13;;;;;;;;;;;5.10;99.90;;;;;;5073708;28;19925;-52
2021/12/31 05:48:40;;;;;;;;;;;5.00;99.90;;;;;;5088525;28;20022;-52
2021/12/31 05:51:07;;;;;;;;;;;5.00;99.90;;;;;;5092867;28;19924;-52
2021/12/31 05:53:34;;;;;;;;;;;4.90;99.90;;;;;;5092799;28;19924;-51
2021/12/31 05:56:01;;;;;;;;;;;4.80;99.90;;;;;;5092825;28;19932;-52
2021/12/31 05:58:27;;;;;;;;;;;4.80;99.90;;;;;;5084419;28;19924;-52
2021/12/31 06:00:54;;;;;;;;;;;4.90;99.90;;;;;;5077543;28;19924;-51
2021/12/31 06:03:22;;;;;;;;;;;4.90;99.90;;;;;;5092323;28;19924;-51
2021/12/31 06:05:50;;;;;;;;;;;4.90;99.90;;;;;;5092231;28;19928;-52
2021/12/31 06:08:17;;;;;;;;;;;4.80;99.90;;;;;;5092284;28;19978;-51
2021/12/31 06:10:44;;;;;;;;;;;4.70;99.90;;;;;;5091302;28;19931;-52
2021/12/31 06:13:11;;;;;;;;;;;4.70;99.90;;;;;;5074457;28;19989;-51
2021/12/31 06:15:38;;;;;;;;;;;4.70;99.90;;;;;;5096494;28;19924;-52
2021/12/31 06:18:07;;;;;;;;;;;4.80;99.90;;;;;;5096380;28;19977;-51
2021/12/31 06:20:36;;;;;;;;;;;4.90;99.90;;;;;;5096770;28;19928;-51
2021/12/31 06:23:03;;;;;;;;;;;5.00;99.90;;;;;;5096480;28;19927;-51
2021/12/31 06:25:30;;;;;;;;;;;5.10;99.90;;;;;;5094662;28;19927;-51
2021/12/31 06:27:57;;;;;;;;;;;4.90;99.90;;;;;;5096360;28;20393;-51
2021/12/31 06:30:24;;;;;;;;;;;4.90;99.90;;;;;;5094257;28;19977;-51
2021/12/31 06:32:50;;;;;;;;;;;4.90;99.90;;;;;;5096289;28;19924;-52
2021/12/31 06:35:17;;;;;;;;;;;4.70;99.90;;;;;;5096345;28;20362;-51
2021/12/31 06:37:47;;;;;;;;;;;4.60;99.90;;;;;;5095958;28;20381;-53
2021/12/31 06:40:15;;;;;;;;;;;4.40;99.90;;;;;;5095944;28;19931;-52
2021/12/31 06:42:42;;;;;;;;;;;4.20;99.90;;;;;;5078854;28;19979;-52
2021/12/31 06:45:09;;;;;;;;;;;4.00;99.90;;;;;;5075917;28;19929;-51
2021/12/31 06:47:36;;;;;;;;;;;4.00;99.90;;;;;;5076779;28;19924;-51
2021/12/31 06:50:03;;;;;;;;;;;3.90;99.90;;;;;;5075424;28;20348;-51
2021/12/31 06:52:30;;;;;;;;;;;3.90;99.90;;;;;;5094545;28;19978;-52
2021/12/31 06:54:58;;;;;;;;;;;4.20;99.90;;;;;;5095667;28;19924;-52
2021/12/31 06:57:25;;;;;;;;;;;4.20;99.90;;;;;;5080322;28;19924;-51
2021/12/31 06:59:52;;;;;;;;;;;4.00;99.90;;;;;;5094871;28;20397;-52
2021/12/31 07:02:18;;;;;;;;;;;4.20;99.90;;;;;;5095605;28;20355;-52
2021/12/31 07:04:45;;;;;;;;;;;4.20;99.90;;;;;;5093737;28;19970;-52
2021/12/31 07:07:12;;;;;;;;;;;4.10;99.90;;;;;;5095517;28;19981;-51
2021/12/31 07:09:39;;;;;;;;;;;4.00;99.90;;;;;;5093870;28;19977;-52
2021/12/31 07:12:08;;;;;;;;;;;3.90;99.90;;;;;;5079811;28;19929;-52
2021/12/31 07:14:35;;;;;;;;;;;3.90;99.90;;;;;;5075136;28;20347;-51
2021/12/31 07:17:01;;;;;;;;;;;3.90;99.90;;;;;;5085329;28;20484;-51
2021/12/31 07:19:28;;;;;;;;;;;3.80;99.90;;;;;;5090153;28;19928;-52
2021/12/31 07:21:55;;;;;;;;;;;3.70;99.90;;;;;;5094123;28;19977;-52
2021/12/31 07:24:22;;;;;;;;;;;3.60;99.90;;;;;;5088560;28;19973;-53
2021/12/31 07:26:49;;;;;;;;;;;3.60;99.90;;;;;;5083915;28;19924;-52
2021/12/31 07:29:17;;;;;;;;;;;3.60;99.90;;;;;;5093629;28;20331;-52
2021/12/31 07:31:44;;;;;;;;;;;3.80;99.90;;;;;;5093525;28;20022;-51
2021/12/31 07:34:10;;;;;;;;;;;3.90;99.90;;;;;;5092837;28;19924;-52
2021/12/31 07:36:37;;;;;;;;;;;3.90;99.90;;;;;;5095129;28;19924;-52
2021/12/31 07:39:07;;;;;;;;;;;3.90;99.90;;;;;;5084569;28;19977;-52
2021/12/31 07:41:33;;;;;;;;;;;3.80;99.90;;;;;;5087850;28;19970;-52
2021/12/31 07:44:00;;;;;;;;;;;3.70;99.90;;;;;;5089829;28;19924;-52
2021/12/31 07:46:29;;;;;;;;;;;3.70;99.90;;;;;;5075200;28;19924;-53
2021/12/31 07:48:56;;;;;;;;;;;3.80;99.90;;;;;;5085889;28;19924;-53
2021/12/31 07:51:22;;;;;;;;;;;3.80;99.90;;;;;;5079300;28;19929;-52
2021/12/31 07:53:49;;;;;;;;;;;3.80;99.90;;;;;;5074150;28;19978;-52
2021/12/31 07:56:18;;;;;;;;;;;3.70;99.90;;;;;;5089869;28;20350;-51
2021/12/31 07:58:45;;;;;;;;;;;3.90;99.90;;;;;;5074210;28;19930;-52
2021/12/31 08:01:12;;;;;;;;;;;3.80;99.90;;;;;;5081625;28;20353;-51
2021/12/31 08:03:40;;;;;;;;;;;3.90;99.90;;;;;;5092813;28;19969;-51
2021/12/31 08:06:07;;;;;;;;;;;3.90;99.90;;;;;;5092139;28;20531;-53
2021/12/31 08:08:33;;;;;;;;;;;4.00;99.90;;;;;;5087733;28;19924;-53
2021/12/31 08:11:00;;;;;;;;;;;4.10;99.90;;;;;;5084000;28;19928;-52
2021/12/31 08:13:27;;;;;;;;;;;4.20;99.90;;;;;;5093976;28;19932;-52
2021/12/31 08:15:54;;;;;;;;;;;4.20;99.90;;;;;;5090507;28;19924;-52
2021/12/31 08:18:21;;;;;;;;;;;4.50;99.90;;;;;;5090525;28;20330;-51
2021/12/31 08:20:49;;;;;;;;;;;4.70;99.90;;;;;;5081817;28;20358;-52
2021/12/31 08:23:16;;;;;;;;;;;4.80;99.90;;;;;;5086479;28;19928;-52
2021/12/31 08:25:43;;;;;;;;;;;5.00;99.90;;;;;;5092456;28;19924;-52
2021/12/31 08:28:11;;;;;;;;;;;5.60;99.90;;;;;;5091383;28;19924;-51
2021/12/31 08:30:38;;;;;;;;;;;7.00;99.90;;;;;;5095804;28;20619;-52
2021/12/31 08:33:04;;;;;;;;;;;8.10;99.90;;;;;;5084843;28;20009;-52
2021/12/31 08:35:31;;;;;;;;;;;8.60;99.90;;;;;;5099240;28;19928;-51
2021/12/31 08:38:00;;;;;;;;;;;8.80;99.90;;;;;;5095783;28;20389;-52
2021/12/31 08:40:26;;;;;;;;;;;8.90;99.90;;;;;;5092969;28;20019;-52
2021/12/31 08:42:54;;;;;;;;;;;8.90;99.90;;;;;;5092200;28;19928;-52
2021/12/31 08:45:21;;;;;;;;;;;9.20;99.90;;;;;;5090940;28;20393;-52
2021/12/31 08:47:51;;;;;;;;;;;9.80;99.90;;;;;;5081296;28;19977;-52
2021/12/31 08:50:18;;;;;;;;;;;10.50;99.90;;;;;;5084719;28;19935;-51
2021/12/31 08:52:45;;;;;;;;;;;10.90;99.90;;;;;;5072902;28;19931;-52
2021/12/31 08:55:13;;;;;;;;;;;11.00;99.90;;;;;;5072527;28;20357;-52
2021/12/31 08:57:40;;;;;;;;;;;11.30;99.90;;;;;;5072683;28;20389;-52
2021/12/31 09:00:08;;;;;;;;;;;11.50;99.90;;;;;;5077676;28;20291;-52
2021/12/31 09:02:35;;;;;;;;;;;11.80;99.90;;;;;;5091979;28;19924;-52
2021/12/31 09:05:02;;;;;;;;;;;11.80;99.90;;;;;;5092569;28;19981;-52
2021/12/31 09:07:29;;;;;;;;;;;12.10;99.90;;;;;;5091973;28;19924;-52
2021/12/31 09:09:56;;;;;;;;;;;12.30;99.90;;;;;;5092401;28;19962;-52
2021/12/31 09:12:24;;;;;;;;;;;12.50;99.90;;;;;;5092711;28;19932;-52
2021/12/31 09:14:51;;;;;;;;;;;13.00;99.90;;;;;;5091924;28;19924;-52
2021/12/31 09:17:18;;;;;;;;;;;13.80;99.90;;;;;;5092170;28;19949;-51
2021/12/31 09:19:45;;;;;;;;;;;14.30;99.90;;;;;;5090413;28;19963;-53
2021/12/31 09:22:11;;;;;;;;;;;14.30;99.90;;;;;;5091817;28;19970;-52
2021/12/31 09:24:39;;;;;;;;;;;13.90;99.90;;;;;;5088150;28;19928;-52
2021/12/31 09:27:06;;;;;;;;;;;13.30;99.90;;;;;;5083294;28;20406;-52
2021/12/31 09:29:34;;;;;;;;;;;12.40;99.90;;;;;;5083201;28;19924;-52
2021/12/31 09:32:01;;;;;;;;;;;12.10;99.90;;;;;;5086702;28;19931;-52
2021/12/31 09:34:27;;;;;;;;;;;11.70;99.90;;;;;;5092275;28;19970;-53
2021/12/31 09:36:54;;;;;;;;;;;11.60;99.90;;;;;;5092357;28;20390;-52
2021/12/31 09:39:21;;;;;;;;;;;11.50;99.90;;;;;;5091758;28;19925;-53
2021/12/31 09:41:48;;;;;;;;;;;10.70;99.90;;;;;;5075867;28;20341;-52
2021/12/31 09:44:15;;;;;;;;;;;10.50;99.90;;;;;;5092788;28;19924;-52
2021/12/31 09:46:43;;;;;;;;;;;10.50;99.90;;;;;;5092660;28;19924;-52
2021/12/31 09:49:10;;;;;;;;;;;10.70;99.90;;;;;;5088661;28;19924;-52
2021/12/31 09:51:41;;;;;;;;;;;10.70;99.90;;;;;;5080982;28;19992;-52
2021/12/31 09:54:09;;;;;;;;;;;10.80;99.90;;;;;;5084646;28;19986;-52
2021/12/31 09:56:39;;;;;;;;;;;10.80;99.90;;;;;;5086672;28;20060;-52
2021/12/31 09:59:06;;;;;;;;;;;10.80;99.90;;;;;;5092127;28;20022;-52
2021/12/31 10:01:32;;;;;;;;;;;10.80;99.90;;;;;;5092263;28;19946;-53
2021/12/31 10:04:01;;;;;;;;;;;10.80;99.90;;;;;;5091705;28;19932;-53
2021/12/31 10:06:28;;;;;;;;;;;10.90;99.90;;;;;;5093295;28;19924;-52
2021/12/31 10:08:57;;;;;;;;;;;11.00;99.90;;;;;;5092288;28;19932;-52
2021/12/31 10:11:24;;;;;;;;;;;11.50;99.90;;;;;;5092075;28;20407;-53
2021/12/31 10:13:54;;;;;;;;;;;11.90;99.90;;;;;;5091682;28;19985;-52
2021/12/31 10:16:25;;;;;;;;;;;12.90;99.90;;;;;;5089494;28;20330;-53
2021/12/31 10:19:06;;;;;;;;;;;13.90;99.90;;;;;;5085969;28;19924;-53
2021/12/31 10:21:38;;;;;;;;;;;15.00;99.90;;;;;;5090872;28;19930;-52
2021/12/31 10:24:18;;;;;;;;;;;16.60;99.90;;;;;;5085574;28;20385;-52
2021/12/31 10:26:45;;;;;;;;;;;17.30;99.90;;;;;;5090905;28;20381;-52
2021/12/31 10:29:13;;;;;;;;;;;18.50;99.90;;;;;;5078187;28;19924;-53
2021/12/31 10:31:43;;;;;;;;;;;19.40;99.90;;;;;;5073277;28;19928;-52
2021/12/31 10:34:24;;;;;;;;;;;19.90;99.90;;;;;;5087944;28;19924;-53
2021/12/31 10:36:51;;;;;;;;;;;19.50;99.90;;;;;;5081781;28;19924;-52
2021/12/31 10:39:21;;;;;;;;;;;19.50;99.90;;;;;;5088988;28;19928;-52
2021/12/31 10:41:51;;;;;;;;;;;19.30;99.90;;;;;;5091293;28;20435;-52
2021/12/31 10:44:18;;;;;;;;;;;18.40;99.90;;;;;;5070577;28;19925;-53
2021/12/31 10:46:45;;;;;;;;;;;16.70;99.90;;;;;;5088502;28;19935;-52
2021/12/31 10:49:14;;;;;;;;;;;15.20;99.90;;;;;;5090718;28;19978;-52
2021/12/31 10:51:42;;;;;;;;;;;14.00;99.90;;;;;;5090100;28;19939;-53
2021/12/31 10:54:27;;;;;;;;;;;13.20;99.90;;;;;;5090761;28;19924;-53
2021/12/31 10:56:55;;;;;;;;;;;12.80;99.90;;;;;;5091291;28;20389;-52
2021/12/31 10:59:22;;;;;;;;;;;12.60;99.90;;;;;;5091087;28;20019;-52
2021/12/31 11:01:49;;;;;;;;;;;12.30;99.90;;;;;;5093463;28;19939;-52
2021/12/31 11:04:18;;;;;;;;;;;12.10;99.90;;;;;;5095471;28;19993;-51
2021/12/31 11:06:46;;;;;;;;;;;12.00;99.90;;;;;;5097451;28;19935;-52
2021/12/31 11:09:13;;;;;;;;;;;12.00;99.90;;;;;;5094272;28;19924;-52
2021/12/31 11:11:42;;;;;;;;;;;12.10;99.90;;;;;;5094384;28;19977;-52
2021/12/31 11:14:09;;;;;;;;;;;12.20;99.90;;;;;;5101253;28;19924;-52
2021/12/31 11:16:39;;;;;;;;;;;12.00;99.90;;;;;;5095240;27;19931;-53
2021/12/31 11:19:07;;;;;;;;;;;12.00;99.90;;;;;;5075181;28;20011;-54
2021/12/31 11:21:35;;;;;;;;;;;12.10;99.90;;;;;;5077129;28;19924;-54
2021/12/31 11:24:17;;;;;;;;;;;12.20;99.90;;;;;;5074531;28;19971;-53
2021/12/31 11:26:43;;;;;;;;;;;12.30;99.90;;;;;;5079382;28;20332;-54
2021/12/31 11:29:14;;;;;;;;;;;12.40;99.90;;;;;;5093755;28;19924;-53
2021/12/31 11:31:42;;;;;;;;;;;12.50;99.90;;;;;;5093661;28;19932;-53
2021/12/31 11:34:13;;;;;;;;;;;12.60;99.90;;;;;;5089776;28;20007;-53
2021/12/31 11:36:42;;;;;;;;;;;12.80;99.90;;;;;;5088368;28;20369;-53
2021/12/31 11:39:15;;;;;;;;;;;12.80;99.90;;;;;;5086718;28;19928;-53
2021/12/31 11:41:42;;;;;;;;;;;13.00;99.90;;;;;;5080441;28;19932;-53
2021/12/31 11:44:10;;;;;;;;;;;13.10;99.90;;;;;;5094112;28;19924;-54
2021/12/31 11:46:37;;;;;;;;;;;13.10;99.90;;;;;;5094113;28;19930;-53
2021/12/31 11:49:08;;;;;;;;;;;13.00;99.90;;;;;;5092451;28;19930;-53
2021/12/31 11:51:36;;;;;;;;;;;13.10;99.90;;;;;;5093032;28;19973;-52
2021/12/31 11:54:17;;;;;;;;;;;13.20;99.90;;;;;;5081187;28;19928;-53
2021/12/31 11:56:56;;;;;;;;;;;13.00;99.90;;;;;;5080053;28;19924;-52
2021/12/31 11:59:30;;;;;;;;;;;13.10;99.90;;;;;;5091724;28;20353;-52
2021/12/31 12:02:06;;;;;;;;;;;12.90;99.90;;;;;;5079370;28;20378;-53
2021/12/31 12:04:34;;;;;;;;;;;13.10;99.90;;;;;;5083945;28;19928;-53
2021/12/31 12:07:01;;;;;;;;;;;13.00;99.90;;;;;;5094013;28;19986;-54
2021/12/31 12:09:42;;;;;;;;;;;12.70;99.90;;;;;;5092166;28;19924;-53
2021/12/31 12:12:11;;;;;;;;;;;12.70;99.90;;;;;;5081034;28;19924;-53
2021/12/31 12:14:40;;;;;;;;;;;12.70;99.90;;;;;;5072818;28;19925;-53
2021/12/31 12:17:08;;;;;;;;;;;12.70;99.90;;;;;;5075259;28;19924;-53
2021/12/31 12:19:53;;;;;;;;;;;12.70;99.90;;;;;;5085106;28;19970;-51
2021/12/31 12:22:24;;;;;;;;;;;12.60;99.90;;;;;;5074499;28;20436;-52
2021/12/31 12:24:52;;;;;;;;;;;12.70;99.90;;;;;;5083068;28;19924;-52
2021/12/31 12:27:21;;;;;;;;;;;12.90;99.90;;;;;;5080887;28;19969;-51
2021/12/31 12:29:48;;;;;;;;;;;12.80;99.90;;;;;;5092549;28;19985;-52
2021/12/31 12:32:17;;;;;;;;;;;12.80;99.90;;;;;;5091382;28;19928;-53
2021/12/31 12:34:43;;;;;;;;;;;12.80;99.90;;;;;;5073987;28;19978;-53
2021/12/31 12:37:10;;;;;;;;;;;12.80;99.90;;;;;;5075033;28;19928;-52
2021/12/31 12:39:37;;;;;;;;;;;12.90;99.90;;;;;;5078241;28;20023;-53
2021/12/31 12:42:07;;;;;;;;;;;12.90;99.90;;;;;;5092605;28;19936;-53
2021/12/31 12:44:36;;;;;;;;;;;12.90;99.90;;;;;;5093063;28;19924;-53
2021/12/31 12:47:03;;;;;;;;;;;13.10;99.90;;;;;;5080946;28;19931;-52
2021/12/31 12:49:30;;;;;;;;;;;13.00;99.90;;;;;;5081781;28;19969;-52
2021/12/31 12:52:10;;;;;;;;;;;13.00;99.90;;;;;;5092757;28;19925;-53
2021/12/31 12:54:37;;;;;;;;;;;12.90;99.90;;;;;;5076941;28;19985;-52
2021/12/31 12:57:04;;;;;;;;;;;12.80;99.90;;;;;;5093030;28;20011;-53
2021/12/31 12:59:31;;;;;;;;;;;12.70;99.90;;;;;;5092486;28;19985;-52
2021/12/31 13:01:59;;;;;;;;;;;12.60;99.90;;;;;;5092444;28;19924;-53
2021/12/31 13:04:27;;;;;;;;;;;12.50;99.90;;;;;;5091629;28;19973;-52
2021/12/31 13:06:59;;;;;;;;;;;12.30;99.90;;;;;;5076289;28;20349;-53
2021/12/31 13:09:29;;;;;;;;;;;12.20;99.90;;;;;;5079909;28;19928;-52
2021/12/31 13:11:59;;;;;;;;;;;12.20;99.90;;;;;;5092297;28;19932;-53
2021/12/31 13:14:29;;;;;;;;;;;12.30;99.90;;;;;;5092409;28;19934;-52
2021/12/31 13:16:57;;;;;;;;;;;12.40;99.90;;;;;;5092541;28;19976;-53
2021/12/31 13:19:30;;;;;;;;;;;12.30;99.90;;;;;;5090857;28;20019;-52
2021/12/31 13:21:59;;;;;;;;;;;12.20;99.90;;;;;;5092464;28;19931;-52
2021/12/31 13:24:26;;;;;;;;;;;12.10;99.90;;;;;;5092492;28;19928;-52
2021/12/31 13:26:54;;;;;;;;;;;12.20;99.90;;;;;;5092006;28;19924;-52
2021/12/31 13:29:30;;;;;;;;;;;12.20;99.90;;;;;;5092320;28;20448;-52
2021/12/31 13:32:04;;;;;;;;;;;12.20;99.90;;;;;;5088376;28;20282;-53
2021/12/31 13:34:38;;;;;;;;;;;12.10;99.90;;;;;;5076007;28;19928;-52
2021/12/31 13:37:05;;;;;;;;;;;12.00;99.90;;;;;;5089581;28;19935;-52
2021/12/31 13:39:35;;;;;;;;;;;12.00;99.90;;;;;;5091534;28;20018;-52
2021/12/31 13:42:03;;;;;;;;;;;12.00;99.90;;;;;;5094142;28;20011;-52
2021/12/31 13:44:31;;;;;;;;;;;12.00;99.90;;;;;;5093095;28;20356;-52
2021/12/31 13:47:00;;;;;;;;;;;11.90;99.90;;;;;;5089848;28;19924;-52
2021/12/31 13:49:26;;;;;;;;;;;11.80;99.90;;;;;;5092287;28;19928;-52
2021/12/31 13:51:54;;;;;;;;;;;11.60;99.90;;;;;;5072529;28;19928;-53
2021/12/31 13:54:35;;;;;;;;;;;11.60;99.90;;;;;;5081599;28;20389;-52
2021/12/31 13:57:02;;;;;;;;;;;11.60;99.90;;;;;;5076590;28;19924;-53
2021/12/31 13:59:35;;;;;;;;;;;11.60;99.90;;;;;;5084074;28;20003;-52
2021/12/31 14:02:03;;;;;;;;;;;11.80;99.90;;;;;;5091556;28;19928;-52
2021/12/31 14:04:29;;;;;;;;;;;11.80;99.90;;;;;;5091283;28;19985;-52
2021/12/31 14:07:14;;;;;;;;;;;11.60;99.90;;;;;;5081312;28;20278;-52
2021/12/31 14:09:41;;;;;;;;;;;11.60;99.90;;;;;;5088054;28;19931;-52
2021/12/31 14:12:08;;;;;;;;;;;11.70;99.90;;;;;;5091789;28;19969;-52
2021/12/31 14:14:36;;;;;;;;;;;11.70;99.90;;;;;;5085493;28;19924;-52
2021/12/31 14:17:03;;;;;;;;;;;11.60;99.90;;;;;;5081872;28;19964;-52
2021/12/31 14:19:33;;;;;;;;;;;11.60;99.90;;;;;;5092001;28;19924;-52
2021/12/31 14:22:01;;;;;;;;;;;11.50;99.90;;;;;;5074586;28;19932;-52
2021/12/31 14:24:28;;;;;;;;;;;11.40;99.90;;;;;;5072000;28;19925;-52
2021/12/31 14:26:55;;;;;;;;;;;11.40;99.90;;;;;;5084788;28;19969;-53
2021/12/31 14:29:22;;;;;;;;;;;11.20;99.90;;;;;;5083506;28;19947;-56
2021/12/31 14:31:48;;;;;;;;;;;11.20;99.90;;;;;;5080600;28;19978;-52